Time;durP1;ratioP1;P1;durP2;ratioP2;P2;SDS_P1;SDS_P2;PMS_P1;PMS_P2;Temp;Humidity;BMP_temperature;BMP_pressure;BME280_temperature;BME280_humidity;BME280_pressure;Samples;Min_cycle;Max_cycle;Signal;HPM_P1;HPM_P2
2023/12/25 00:00:04;;;;;;;0.80;0.73;;;;;;;10.59;100.00;97752.31;5092959;28;20223;-73
2023/12/25 00:02:30;;;;;;;1.10;0.50;;;;;;;10.53;100.00;97761.16;5093097;28;20203;-73
2023/12/25 00:04:57;;;;;;;1.03;0.73;;;;;;;10.55;100.00;97754.59;5093103;28;20216;-73
2023/12/25 00:07:23;;;;;;;1.47;0.70;;;;;;;10.65;100.00;97754.03;5093635;28;20235;-73
2023/12/25 00:09:49;;;;;;;2.33;0.87;;;;;;;10.59;100.00;97754.97;5096570;28;20228;-73
2023/12/25 00:12:17;;;;;;;0.60;0.60;;;;;;;10.63;100.00;97756.94;5096636;28;20208;-73
2023/12/25 00:14:43;;;;;;;0.67;0.60;;;;;;;10.66;100.00;97745.84;5096358;28;20205;-73
2023/12/25 00:17:10;;;;;;;1.60;0.70;;;;;;;10.65;100.00;97748.72;5095320;28;20218;-73
2023/12/25 00:19:38;;;;;;;1.00;0.70;;;;;;;10.61;100.00;97752.88;5093984;28;20234;-73
2023/12/25 00:22:04;;;;;;;1.80;0.80;;;;;;;10.59;100.00;97763.72;5094056;28;20664;-73
2023/12/25 00:24:31;;;;;;;1.30;0.50;;;;;;;10.65;100.00;97754.88;5094228;28;20289;-73
2023/12/25 00:26:57;;;;;;;1.00;0.63;;;;;;;10.58;100.00;97766.59;5093971;28;20203;-73
2023/12/25 00:29:23;;;;;;;0.60;0.60;;;;;;;10.59;100.00;97765.59;5094097;28;20246;-73
2023/12/25 00:31:50;;;;;;;2.07;0.70;;;;;;;10.64;100.00;97771.03;5094156;28;20225;-73
2023/12/25 00:34:16;;;;;;;0.50;0.50;;;;;;;10.67;100.00;97773.22;5093895;28;20212;-73
2023/12/25 00:36:43;;;;;;;0.93;0.53;;;;;;;10.68;100.00;97767.69;5095334;28;20203;-73
2023/12/25 00:39:09;;;;;;;0.60;0.60;;;;;;;10.58;100.00;97769.25;5096050;28;20217;-73
2023/12/25 00:41:35;;;;;;;2.17;0.90;;;;;;;10.57;100.00;97772.97;5095992;28;20206;-73
2023/12/25 00:44:02;;;;;;;0.70;0.70;;;;;;;10.57;100.00;97781.75;5095977;28;20205;-73
2023/12/25 00:46:28;;;;;;;1.27;0.70;;;;;;;10.60;100.00;97775.19;5095918;28;20206;-73
2023/12/25 00:48:54;;;;;;;0.93;0.77;;;;;;;10.63;100.00;97782.69;5095403;28;20223;-73
2023/12/25 00:51:21;;;;;;;0.53;0.53;;;;;;;10.64;100.00;97784.34;5095775;28;20200;-73
2023/12/25 00:53:47;;;;;;;0.90;0.73;;;;;;;10.59;100.00;97771.69;5095750;28;20252;-73
2023/12/25 00:56:14;;;;;;;0.77;0.77;;;;;;;10.54;100.00;97765.47;5095727;28;20757;-73
2023/12/25 00:58:40;;;;;;;2.10;0.80;;;;;;;10.52;100.00;97762.19;5096514;28;20549;-73
2023/12/25 01:01:07;;;;;;;1.20;0.60;;;;;;;10.43;100.00;97767.03;5095352;28;20573;-73
2023/12/25 01:03:33;;;;;;;3.47;0.80;;;;;;;10.43;100.00;97775.00;5095565;28;20600;-73
2023/12/25 01:05:59;;;;;;;1.97;0.70;;;;;;;10.42;100.00;97776.00;5095462;28;20205;-73
2023/12/25 01:08:26;;;;;;;1.03;0.80;;;;;;;10.46;100.00;97771.09;5095323;28;20235;-73
2023/12/25 01:10:52;;;;;;;1.17;0.77;;;;;;;10.49;100.00;97760.00;5095390;28;20224;-73
2023/12/25 01:13:18;;;;;;;0.67;0.67;;;;;;;10.48;100.00;97758.38;5094970;28;20663;-73
2023/12/25 01:15:45;;;;;;;1.70;0.80;;;;;;;10.47;100.00;97754.09;5095028;28;20246;-73
2023/12/25 01:18:11;;;;;;;1.00;0.70;;;;;;;10.47;100.00;97744.28;5094967;28;20201;-73
2023/12/25 01:20:37;;;;;;;1.43;0.80;;;;;;;10.44;100.00;97758.03;5094492;28;20314;-73
2023/12/25 01:23:04;;;;;;;0.83;0.67;;;;;;;10.49;100.00;97755.50;5095181;28;20204;-73
2023/12/25 01:25:30;;;;;;;1.30;0.67;;;;;;;10.37;100.00;97745.84;5095173;28;20208;-73
2023/12/25 01:27:57;;;;;;;2.83;0.87;;;;;;;10.43;100.00;97744.94;5094942;28;20554;-72
2023/12/25 01:30:23;;;;;;;2.30;0.67;;;;;;;10.43;100.00;97745.78;5094871;28;20224;-73
2023/12/25 01:32:52;;;;;;;2.07;0.80;;;;;;;10.29;100.00;97746.16;5094947;28;20211;-73
2023/12/25 01:35:18;;;;;;;1.40;0.80;;;;;;;10.29;100.00;97748.81;5094937;28;20209;-73
2023/12/25 01:37:45;;;;;;;1.00;0.60;;;;;;;10.29;100.00;97744.34;5094921;28;20200;-73
2023/12/25 01:40:11;;;;;;;0.87;0.57;;;;;;;10.22;100.00;97742.78;5094798;28;20227;-73
2023/12/25 01:42:42;;;;;;;1.13;0.80;;;;;;;10.21;100.00;97741.16;5094776;28;20206;-73
2023/12/25 01:45:09;;;;;;;1.90;0.57;;;;;;;10.29;100.00;97746.16;5094960;28;20193;-73
2023/12/25 01:47:35;;;;;;;1.93;0.70;;;;;;;10.20;100.00;97750.16;5094493;28;20216;-73
2023/12/25 01:50:03;;;;;;;1.10;0.47;;;;;;;10.26;100.00;97754.56;5094311;28;20231;-73
2023/12/25 01:52:29;;;;;;;0.87;0.50;;;;;;;10.10;100.00;97756.00;5094588;28;20230;-73
2023/12/25 01:54:57;;;;;;;0.80;0.70;;;;;;;10.11;100.00;97741.69;5094583;28;20204;-73
2023/12/25 01:57:26;;;;;;;1.40;0.80;;;;;;;10.03;100.00;97744.63;5094544;28;20569;-73
2023/12/25 01:59:52;;;;;;;0.93;0.70;;;;;;;10.12;100.00;97747.81;5094223;28;20592;-73
2023/12/25 02:02:20;;;;;;;1.80;0.70;;;;;;;10.01;100.00;97744.03;5094077;28;20210;-73
2023/12/25 02:04:47;;;;;;;0.93;0.67;;;;;;;10.02;100.00;97743.00;5094414;28;20588;-73
2023/12/25 02:07:15;;;;;;;1.10;0.70;;;;;;;10.08;100.00;97755.41;5094084;28;20690;-72
2023/12/25 02:09:48;;;;;;;0.63;0.53;;;;;;;9.98;100.00;97747.13;5075911;28;20230;-73
2023/12/25 02:12:14;;;;;;;1.33;0.70;;;;;;;10.02;100.00;97752.81;5094380;28;20213;-73
2023/12/25 02:14:40;;;;;;;1.00;0.60;;;;;;;9.94;100.00;97753.09;5094264;28;20294;-73
2023/12/25 02:17:09;;;;;;;0.90;0.60;;;;;;;10.04;100.00;97766.66;5093930;28;20210;-73
2023/12/25 02:19:41;;;;;;;1.33;0.70;;;;;;;10.00;100.00;97762.84;5093791;28;20226;-73
2023/12/25 02:22:09;;;;;;;1.03;0.63;;;;;;;9.96;100.00;97764.31;5094230;28;20230;-73
2023/12/25 02:25:00;;;;;;;0.80;0.60;;;;;;;10.07;100.00;97769.75;5093773;28;20212;-73
2023/12/25 02:27:27;;;;;;;2.03;0.60;;;;;;;10.12;100.00;97771.72;5094120;28;20192;-73
2023/12/25 02:29:54;;;;;;;1.60;0.60;;;;;;;9.99;100.00;97769.19;5093586;28;20228;-73
2023/12/25 02:32:20;;;;;;;1.20;0.70;;;;;;;10.06;100.00;97773.44;5093073;28;20218;-73
2023/12/25 02:34:47;;;;;;;0.70;0.70;;;;;;;9.98;100.00;97770.22;5093908;28;20200;-73
2023/12/25 02:37:14;;;;;;;0.87;0.70;;;;;;;10.07;100.00;97766.25;5093635;28;20208;-73
2023/12/25 02:39:41;;;;;;;0.90;0.60;;;;;;;10.04;100.00;97767.53;5093875;28;20223;-73
2023/12/25 02:42:08;;;;;;;1.57;0.70;;;;;;;9.90;100.00;97770.50;5093360;28;20298;-73
2023/12/25 02:44:34;;;;;;;0.63;0.63;;;;;;;9.99;100.00;97761.22;5093847;28;20230;-73
2023/12/25 02:47:01;;;;;;;1.23;0.83;;;;;;;9.87;100.00;97761.13;5093739;28;20208;-73
2023/12/25 02:49:27;;;;;;;0.73;0.60;;;;;;;10.04;100.00;97756.03;5093158;28;20694;-73
2023/12/25 02:51:54;;;;;;;0.70;0.70;;;;;;;10.07;100.00;97760.94;5093457;28;20689;-73
2023/12/25 02:54:20;;;;;;;0.70;0.70;;;;;;;10.07;100.00;97753.81;5093428;28;20698;-73
2023/12/25 02:56:47;;;;;;;0.40;0.40;;;;;;;10.16;100.00;97754.28;5093617;28;20577;-72
2023/12/25 02:59:13;;;;;;;0.63;0.50;;;;;;;10.21;100.00;97757.91;5093536;28;20216;-72
2023/12/25 03:01:39;;;;;;;0.90;0.60;;;;;;;10.21;100.00;97760.56;5093576;28;20201;-73
2023/12/25 03:04:06;;;;;;;0.50;0.50;;;;;;;10.11;100.00;97762.94;5093245;28;20671;-73
2023/12/25 03:06:32;;;;;;;1.30;0.73;;;;;;;10.10;100.00;97752.53;5093304;28;20290;-73
2023/12/25 03:08:58;;;;;;;0.60;0.60;;;;;;;10.02;100.00;97742.19;5093445;28;20217;-73
2023/12/25 03:11:25;;;;;;;0.53;0.53;;;;;;;9.91;100.00;97735.78;5093281;28;20625;-73
2023/12/25 03:13:51;;;;;;;1.23;0.60;;;;;;;9.98;100.00;97736.50;5093550;28;20210;-73
2023/12/25 03:16:19;;;;;;;1.43;0.70;;;;;;;9.87;100.00;97729.28;5093493;28;20574;-73
2023/12/25 03:18:46;;;;;;;0.97;0.70;;;;;;;10.08;100.00;97736.81;5093099;28;20204;-73
2023/12/25 03:21:12;;;;;;;1.03;0.80;;;;;;;10.04;100.00;97737.44;5093154;28;20670;-73
2023/12/25 03:23:38;;;;;;;0.80;0.70;;;;;;;10.07;100.00;97726.41;5093478;28;20200;-73
2023/12/25 03:26:05;;;;;;;0.73;0.70;;;;;;;10.17;100.00;97737.31;5093440;28;20200;-73
2023/12/25 03:28:32;;;;;;;2.40;0.77;;;;;;;10.08;100.00;97733.34;5093409;28;20231;-73
2023/12/25 03:30:58;;;;;;;1.27;0.60;;;;;;;10.11;100.00;97732.91;5093321;28;20219;-73
2023/12/25 03:33:24;;;;;;;1.30;0.60;;;;;;;9.96;100.00;97737.78;5093316;28;20203;-73
2023/12/25 03:35:50;;;;;;;1.07;0.70;;;;;;;10.02;100.00;97735.03;5093310;28;20208;-73
2023/12/25 03:38:16;;;;;;;1.53;0.80;;;;;;;9.87;100.00;97745.22;5093333;28;20655;-73
2023/12/25 03:40:42;;;;;;;0.90;0.73;;;;;;;9.85;100.00;97730.53;5093049;28;20224;-73
2023/12/25 03:43:09;;;;;;;0.70;0.60;;;;;;;9.94;100.00;97734.50;5095299;28;20206;-73
2023/12/25 03:45:35;;;;;;;0.77;0.60;;;;;;;9.72;100.00;97738.63;5097052;28;20200;-73
2023/12/25 03:48:01;;;;;;;0.70;0.70;;;;;;;9.78;100.00;97730.59;5096688;28;20211;-73
2023/12/25 03:50:28;;;;;;;0.63;0.60;;;;;;;9.80;100.00;97730.38;5096931;28;20227;-73
2023/12/25 03:52:54;;;;;;;0.50;0.50;;;;;;;9.88;100.00;97735.41;5096972;28;20200;-73
2023/12/25 03:55:20;;;;;;;0.87;0.73;;;;;;;9.91;100.00;97733.13;5096878;28;20210;-73
2023/12/25 03:57:47;;;;;;;0.93;0.60;;;;;;;9.94;100.00;97739.81;5096936;28;20204;-73
2023/12/25 04:00:14;;;;;;;0.67;0.60;;;;;;;10.04;100.00;97740.97;5096741;28;20215;-73
2023/12/25 04:02:40;;;;;;;1.60;0.60;;;;;;;10.00;100.00;97741.59;5096644;28;20207;-73
2023/12/25 04:05:09;;;;;;;1.03;0.67;;;;;;;9.88;100.00;97741.53;5096378;28;20685;-73
2023/12/25 04:07:36;;;;;;;0.50;0.50;;;;;;;9.89;100.00;97735.19;5096316;28;20769;-73
2023/12/25 04:10:03;;;;;;;0.80;0.67;;;;;;;9.99;100.00;97735.47;5096130;28;20714;-73
2023/12/25 04:12:30;;;;;;;0.60;0.47;;;;;;;9.87;100.00;97739.09;5096570;28;20199;-73
2023/12/25 04:14:56;;;;;;;2.70;0.80;;;;;;;9.81;100.00;97735.47;5096278;28;20539;-73
2023/12/25 04:17:22;;;;;;;1.30;0.90;;;;;;;9.74;100.00;97744.56;5096405;28;20211;-73
2023/12/25 04:19:49;;;;;;;0.60;0.60;;;;;;;9.91;100.00;97745.59;5096343;28;20220;-73
2023/12/25 04:22:15;;;;;;;1.43;0.50;;;;;;;9.93;100.00;97748.81;5096322;28;20207;-73
2023/12/25 04:24:41;;;;;;;1.20;0.80;;;;;;;9.80;100.00;97748.97;5096717;28;20218;-73
2023/12/25 04:27:08;;;;;;;1.33;0.50;;;;;;;9.83;100.00;97759.94;5096289;28;20295;-73
2023/12/25 04:29:34;;;;;;;0.73;0.63;;;;;;;9.95;100.00;97754.72;5096111;28;20232;-73
2023/12/25 04:32:00;;;;;;;2.33;0.70;;;;;;;9.82;100.00;97761.00;5096072;28;20283;-73
2023/12/25 04:34:27;;;;;;;0.70;0.60;;;;;;;9.84;100.00;97763.44;5096105;28;20204;-73
2023/12/25 04:36:53;;;;;;;4.00;0.60;;;;;;;9.78;100.00;97754.50;5095839;28;20231;-73
2023/12/25 04:39:19;;;;;;;0.60;0.60;;;;;;;9.81;100.00;97764.69;5095832;28;20216;-73
2023/12/25 04:41:46;;;;;;;0.60;0.53;;;;;;;9.71;100.00;97772.34;5095853;28;20204;-73
2023/12/25 04:44:13;;;;;;;1.37;0.50;;;;;;;9.96;100.00;97769.63;5095532;28;20658;-72
2023/12/25 04:46:39;;;;;;;1.60;0.43;;;;;;;10.00;100.00;97760.19;5095767;28;20204;-73
2023/12/25 04:49:06;;;;;;;0.60;0.57;;;;;;;9.92;100.00;97758.63;5095139;28;20314;-71
2023/12/25 04:51:33;;;;;;;0.60;0.60;;;;;;;9.91;100.00;97756.22;5095747;28;20203;-72
2023/12/25 04:53:59;;;;;;;1.43;0.60;;;;;;;9.88;100.00;97749.50;5094565;28;20257;-72
2023/12/25 04:56:26;;;;;;;0.73;0.40;;;;;;;10.02;100.00;97748.31;5095375;28;20662;-71
2023/12/25 04:58:52;;;;;;;0.50;0.50;;;;;;;9.91;100.00;97762.31;5095650;28;20206;-72
2023/12/25 05:01:18;;;;;;;1.40;0.53;;;;;;;9.99;100.00;97751.41;5095593;28;20204;-71
2023/12/25 05:03:45;;;;;;;0.80;0.53;;;;;;;9.93;100.00;97751.47;5095631;28;20204;-72
2023/12/25 05:06:11;;;;;;;0.57;0.57;;;;;;;9.95;100.00;97752.06;5095401;28;20208;-72
2023/12/25 05:08:37;;;;;;;1.40;0.60;;;;;;;9.92;100.00;97747.22;5095211;28;20224;-72
2023/12/25 05:11:04;;;;;;;0.50;0.50;;;;;;;9.80;100.00;97749.78;5094919;28;20224;-72
2023/12/25 05:13:31;;;;;;;1.73;0.70;;;;;;;9.61;100.00;97744.69;5094908;28;20204;-72
2023/12/25 05:15:57;;;;;;;0.60;0.60;;;;;;;9.66;100.00;97747.50;5094880;28;20208;-72
2023/12/25 05:18:24;;;;;;;0.60;0.60;;;;;;;9.85;100.00;97741.16;5095165;28;20204;-72
2023/12/25 05:20:50;;;;;;;1.47;0.67;;;;;;;9.82;100.00;97738.97;5095075;28;20273;-72
2023/12/25 05:23:16;;;;;;;0.63;0.60;;;;;;;9.74;100.00;97734.72;5094991;28;20204;-72
2023/12/25 05:25:43;;;;;;;0.40;0.40;;;;;;;9.78;100.00;97738.56;5095200;28;20207;-72
2023/12/25 05:28:10;;;;;;;0.50;0.50;;;;;;;9.76;100.00;97737.16;5095103;28;20203;-72
2023/12/25 05:30:37;;;;;;;0.60;0.40;;;;;;;9.74;100.00;97742.69;5094895;28;20232;-72
2023/12/25 05:33:04;;;;;;;0.50;0.50;;;;;;;9.73;100.00;97746.38;5094969;28;20204;-72
2023/12/25 05:35:30;;;;;;;0.60;0.60;;;;;;;9.76;100.00;97742.47;5094511;28;20218;-72
2023/12/25 05:37:56;;;;;;;0.93;0.80;;;;;;;9.82;100.00;97738.97;5094589;28;20204;-72
2023/12/25 05:40:23;;;;;;;1.57;0.70;;;;;;;9.63;100.00;97727.50;5094352;28;20703;-72
2023/12/25 05:42:50;;;;;;;0.70;0.50;;;;;;;9.69;100.00;97744.41;5094293;28;20543;-72
2023/12/25 05:45:17;;;;;;;0.50;0.50;;;;;;;9.61;100.00;97740.22;5094575;28;20214;-72
2023/12/25 05:47:43;;;;;;;0.50;0.50;;;;;;;9.55;100.00;97756.19;5094058;28;20212;-72
2023/12/25 05:50:10;;;;;;;0.60;0.50;;;;;;;9.49;100.00;97743.78;5094303;28;20232;-72
2023/12/25 05:52:36;;;;;;;0.67;0.60;;;;;;;9.57;100.00;97746.97;5094446;28;20210;-72
2023/12/25 05:55:03;;;;;;;0.60;0.40;;;;;;;9.54;100.00;97760.69;5094578;28;20208;-72
2023/12/25 05:57:29;;;;;;;0.50;0.50;;;;;;;9.63;100.00;97753.22;5094537;28;20216;-72
2023/12/25 05:59:55;;;;;;;0.40;0.40;;;;;;;9.66;100.00;97744.84;5094405;28;20238;-72
2023/12/25 06:02:22;;;;;;;1.80;0.63;;;;;;;9.65;100.00;97759.94;5094450;28;20208;-72
2023/12/25 06:04:48;;;;;;;0.97;0.50;;;;;;;9.61;100.00;97760.63;5094260;28;20206;-72
2023/12/25 06:07:14;;;;;;;0.93;0.67;;;;;;;9.61;100.00;97760.63;5094033;28;20203;-72
2023/12/25 06:09:41;;;;;;;1.23;0.60;;;;;;;9.62;100.00;97763.06;5093871;28;20231;-72
2023/12/25 06:12:07;;;;;;;0.63;0.63;;;;;;;9.56;100.00;97768.44;5094091;28;20199;-72
2023/12/25 06:14:34;;;;;;;0.67;0.67;;;;;;;9.58;100.00;97772.47;5093939;28;20204;-72
2023/12/25 06:17:00;;;;;;;2.83;0.70;;;;;;;9.67;100.00;97770.34;5094055;28;20229;-72
2023/12/25 06:19:27;;;;;;;1.00;0.53;;;;;;;9.64;100.00;97754.88;5094018;28;20216;-72
2023/12/25 06:21:53;;;;;;;0.50;0.50;;;;;;;9.56;100.00;97757.81;5093912;28;20204;-72
2023/12/25 06:24:19;;;;;;;0.63;0.50;;;;;;;9.47;100.00;97761.78;5094000;28;20206;-72
2023/12/25 06:26:46;;;;;;;0.70;0.60;;;;;;;9.55;100.00;97777.44;5093936;28;20226;-72
2023/12/25 06:29:12;;;;;;;0.67;0.53;;;;;;;9.60;100.00;97773.06;5094010;28;20235;-71
2023/12/25 06:31:39;;;;;;;0.70;0.50;;;;;;;9.64;100.00;97776.13;5093711;28;20667;-72
2023/12/25 06:34:05;;;;;;;0.50;0.50;;;;;;;9.64;100.00;97776.13;5093631;28;20204;-72
2023/12/25 06:36:31;;;;;;;1.87;0.70;;;;;;;9.73;100.00;97782.75;5093835;28;20204;-72
2023/12/25 06:38:58;;;;;;;0.50;0.50;;;;;;;9.72;100.00;97784.59;5093367;28;20200;-72
2023/12/25 06:41:24;;;;;;;0.60;0.60;;;;;;;9.76;100.00;97779.66;5093422;28;20239;-72
2023/12/25 06:43:50;;;;;;;0.53;0.53;;;;;;;9.62;100.00;97775.50;5093358;28;20211;-72
2023/12/25 06:46:17;;;;;;;0.50;0.50;;;;;;;9.63;100.00;97790.38;5093716;28;20208;-72
2023/12/25 06:48:43;;;;;;;1.80;0.60;;;;;;;9.62;100.00;97786.13;5093549;28;20294;-72
2023/12/25 06:51:09;;;;;;;1.37;0.50;;;;;;;9.63;100.00;97791.22;5093756;28;20206;-72
2023/12/25 06:53:36;;;;;;;0.67;0.67;;;;;;;9.59;100.00;97783.94;5093684;28;20207;-72
2023/12/25 06:56:02;;;;;;;0.60;0.53;;;;;;;9.58;100.00;97784.94;5093370;28;20214;-72
2023/12/25 06:58:29;;;;;;;0.93;0.60;;;;;;;9.56;100.00;97790.44;5093739;28;20211;-72
2023/12/25 07:00:55;;;;;;;0.73;0.70;;;;;;;9.57;100.00;97796.59;5093625;28;20224;-72
2023/12/25 07:03:21;;;;;;;0.70;0.70;;;;;;;9.53;100.00;97798.03;5093665;28;20330;-72
2023/12/25 07:05:48;;;;;;;0.67;0.67;;;;;;;9.49;100.00;97783.59;5093559;28;20204;-72
2023/12/25 07:08:15;;;;;;;0.70;0.60;;;;;;;9.41;100.00;97803.25;5092983;28;20208;-72
2023/12/25 07:10:43;;;;;;;0.90;0.70;;;;;;;9.47;100.00;97793.63;5092816;28;20231;-72
2023/12/25 07:13:09;;;;;;;0.53;0.53;;;;;;;9.40;100.00;97792.84;5093284;28;20277;-72
2023/12/25 07:15:38;;;;;;;0.50;0.50;;;;;;;9.37;100.00;97806.56;5093328;28;20210;-72
2023/12/25 07:18:05;;;;;;;0.60;0.50;;;;;;;9.46;100.00;97806.06;5095349;28;20204;-72
2023/12/25 07:20:31;;;;;;;0.83;0.70;;;;;;;9.51;100.00;97808.88;5097443;28;20220;-72
2023/12/25 07:22:58;;;;;;;0.60;0.60;;;;;;;9.54;100.00;97807.63;5097396;28;20208;-72
2023/12/25 07:25:24;;;;;;;0.50;0.50;;;;;;;9.50;100.00;97814.44;5097502;28;20204;-72
2023/12/25 07:27:51;;;;;;;1.30;0.53;;;;;;;9.43;100.00;97808.34;5097388;28;20200;-72
2023/12/25 07:30:17;;;;;;;0.60;0.60;;;;;;;9.55;100.00;97802.09;5097173;28;20234;-72
2023/12/25 07:32:43;;;;;;;0.67;0.67;;;;;;;9.46;100.00;97805.28;5098130;28;20212;-72
2023/12/25 07:35:10;;;;;;;0.60;0.60;;;;;;;9.42;100.00;97814.69;5097243;28;20204;-72
2023/12/25 07:37:36;;;;;;;0.70;0.70;;;;;;;9.39;100.00;97813.28;5096793;28;20627;-72
2023/12/25 07:40:03;;;;;;;1.50;0.57;;;;;;;9.43;100.00;97830.41;5096959;28;20220;-72
2023/12/25 07:42:29;;;;;;;1.40;0.50;;;;;;;9.51;100.00;97839.94;5096958;28;20203;-72
2023/12/25 07:44:55;;;;;;;0.70;0.70;;;;;;;9.54;100.00;97840.28;5096979;28;20204;-72
2023/12/25 07:47:22;;;;;;;0.70;0.70;;;;;;;9.59;99.68;97856.38;5096733;28;20200;-72
2023/12/25 07:49:48;;;;;;;0.80;0.70;;;;;;;9.62;100.00;97857.78;5096820;28;20235;-72
2023/12/25 07:52:14;;;;;;;0.60;0.60;;;;;;;9.55;100.00;97857.03;5096988;28;20207;-72
2023/12/25 07:54:41;;;;;;;0.50;0.50;;;;;;;9.56;100.00;97845.38;5096908;28;20204;-72
2023/12/25 07:57:07;;;;;;;1.13;0.80;;;;;;;9.69;99.32;97840.75;5096909;28;20610;-72
2023/12/25 07:59:34;;;;;;;0.60;0.60;;;;;;;9.71;100.00;97846.69;5096652;28;20226;-72
2023/12/25 08:02:00;;;;;;;0.60;0.60;;;;;;;9.65;100.00;97849.41;5096615;28;20210;-72
2023/12/25 08:04:26;;;;;;;1.07;0.60;;;;;;;9.68;100.00;97862.25;5096454;28;20204;-72
2023/12/25 08:06:53;;;;;;;0.63;0.60;;;;;;;9.63;100.00;97856.75;5096633;28;20214;-72
2023/12/25 08:09:20;;;;;;;0.73;0.60;;;;;;;9.70;100.00;97853.03;5095894;28;20782;-72
2023/12/25 08:11:46;;;;;;;0.77;0.70;;;;;;;9.70;100.00;97860.16;5096172;28;20219;-72
2023/12/25 08:14:12;;;;;;;0.87;0.77;;;;;;;9.77;99.91;97860.94;5096185;28;20690;-72
2023/12/25 08:16:40;;;;;;;1.30;0.90;;;;;;;9.83;100.00;97878.63;5096081;28;20205;-72
2023/12/25 08:19:06;;;;;;;0.67;0.67;;;;;;;9.88;98.70;97889.41;5095987;28;20219;-72
2023/12/25 08:21:34;;;;;;;1.03;0.57;;;;;;;9.85;99.03;97874.72;5095900;28;20216;-72
2023/12/25 08:24:00;;;;;;;1.23;0.60;;;;;;;9.88;100.00;97879.59;5096247;28;20211;-72
2023/12/25 08:26:26;;;;;;;0.63;0.63;;;;;;;9.89;98.52;97875.09;5095977;28;20207;-72
2023/12/25 08:28:53;;;;;;;0.60;0.60;;;;;;;9.87;99.15;97882.47;5095775;28;20208;-72
2023/12/25 08:31:20;;;;;;;0.60;0.60;;;;;;;9.89;100.00;97891.03;5095863;28;20230;-72
2023/12/25 08:33:46;;;;;;;1.77;0.80;;;;;;;9.92;100.00;97901.22;5096245;28;20204;-72
2023/12/25 08:36:13;;;;;;;0.80;0.50;;;;;;;10.00;99.36;97895.63;5096198;28;20211;-72
2023/12/25 08:38:39;;;;;;;0.70;0.70;;;;;;;10.04;99.97;97902.09;5096538;28;20204;-72
2023/12/25 08:41:05;;;;;;;0.93;0.60;;;;;;;10.01;100.00;97899.91;5095798;28;20228;-72
2023/12/25 08:43:32;;;;;;;0.67;0.67;;;;;;;9.99;100.00;97912.56;5095367;28;20205;-72
2023/12/25 08:45:58;;;;;;;0.73;0.60;;;;;;;10.03;100.00;97914.59;5095573;28;20258;-72
2023/12/25 08:48:25;;;;;;;0.97;0.70;;;;;;;10.07;100.00;97922.97;5095175;28;20219;-72
2023/12/25 08:50:51;;;;;;;0.70;0.60;;;;;;;10.15;100.00;97920.03;5095946;28;20316;-72
2023/12/25 08:53:18;;;;;;;0.60;0.60;;;;;;;10.20;100.00;97910.38;5095709;28;20295;-72
2023/12/25 08:55:44;;;;;;;0.60;0.60;;;;;;;10.23;100.00;97903.81;5095622;28;20204;-72
2023/12/25 08:58:11;;;;;;;0.67;0.60;;;;;;;10.29;100.00;97903.75;5095295;28;20295;-72
2023/12/25 09:00:37;;;;;;;0.50;0.50;;;;;;;10.32;100.00;97900.63;5095263;28;20232;-72
2023/12/25 09:03:04;;;;;;;0.60;0.60;;;;;;;10.33;100.00;97888.16;5095437;28;20211;-72
2023/12/25 09:05:30;;;;;;;0.50;0.50;;;;;;;10.39;100.00;97914.66;5095108;28;20208;-72
2023/12/25 09:07:57;;;;;;;0.83;0.53;;;;;;;10.45;100.00;97913.78;5094888;28;20212;-72
2023/12/25 09:10:23;;;;;;;1.67;0.63;;;;;;;10.32;100.00;97908.59;5095123;28;20229;-72
2023/12/25 09:12:50;;;;;;;0.63;0.63;;;;;;;10.30;100.00;97907.19;5095376;28;20566;-72
2023/12/25 09:15:17;;;;;;;0.67;0.67;;;;;;;10.30;100.00;97916.00;5094987;28;20573;-72
2023/12/25 09:17:45;;;;;;;1.03;0.60;;;;;;;10.33;100.00;97922.72;5094855;28;20214;-72
2023/12/25 09:20:12;;;;;;;1.97;0.73;;;;;;;10.36;100.00;97914.31;5094741;28;20247;-72
2023/12/25 09:22:38;;;;;;;0.73;0.70;;;;;;;10.38;100.00;97928.16;5094942;28;20307;-72
2023/12/25 09:25:05;;;;;;;0.60;0.60;;;;;;;10.41;100.00;97931.19;5094838;28;20207;-72
2023/12/25 09:27:32;;;;;;;1.47;0.60;;;;;;;10.46;100.00;97933.19;5094591;28;20695;-72
2023/12/25 09:29:58;;;;;;;1.47;0.60;;;;;;;10.44;100.00;97937.91;5094927;28;20248;-72
2023/12/25 09:32:27;;;;;;;0.60;0.60;;;;;;;10.45;100.00;97945.66;5094569;28;20214;-72
2023/12/25 09:34:53;;;;;;;0.90;0.70;;;;;;;10.65;100.00;97934.81;5094967;28;20556;-72
2023/12/25 09:37:20;;;;;;;1.13;0.60;;;;;;;10.66;100.00;97941.75;5094754;28;20210;-72
2023/12/25 09:39:47;;;;;;;0.93;0.70;;;;;;;10.70;100.00;97937.63;5094471;28;20233;-72
2023/12/25 09:42:13;;;;;;;0.63;0.50;;;;;;;10.76;100.00;97940.22;5094565;28;20210;-72
2023/12/25 09:44:40;;;;;;;0.60;0.60;;;;;;;10.82;100.00;97946.50;5094709;28;20210;-72
2023/12/25 09:47:10;;;;;;;0.60;0.60;;;;;;;10.78;100.00;97940.78;5094066;28;20207;-72
2023/12/25 09:49:39;;;;;;;1.70;0.60;;;;;;;10.86;100.00;97942.34;5094186;28;20625;-72
2023/12/25 09:52:06;;;;;;;0.50;0.50;;;;;;;10.71;100.00;97947.22;5094556;28;20202;-73
2023/12/25 09:54:33;;;;;;;0.90;0.47;;;;;;;10.59;100.00;97943.69;5094548;28;20573;-71
2023/12/25 09:57:02;;;;;;;1.00;0.60;;;;;;;10.56;100.00;97936.97;5094476;28;20208;-71
2023/12/25 09:59:31;;;;;;;1.10;0.60;;;;;;;10.56;100.00;97941.47;5094046;28;20221;-72
2023/12/25 10:02:03;;;;;;;0.70;0.40;;;;;;;10.49;100.00;97938.88;5094303;28;20211;-73
2023/12/25 10:04:31;;;;;;;1.20;0.60;;;;;;;10.53;100.00;97931.28;5076266;28;20188;-73
2023/12/25 10:06:57;;;;;;;0.50;0.50;;;;;;;10.51;100.00;97928.03;5076008;28;20200;-73
2023/12/25 10:09:24;;;;;;;0.43;0.43;;;;;;;10.57;100.00;97911.19;5093761;28;20723;-73
2023/12/25 10:11:50;;;;;;;0.93;0.60;;;;;;;10.63;100.00;97910.28;5093859;28;20226;-72
2023/12/25 10:14:16;;;;;;;0.50;0.50;;;;;;;10.63;100.00;97910.28;5094184;28;20204;-72
2023/12/25 10:16:44;;;;;;;1.03;0.70;;;;;;;10.64;100.00;97894.13;5094206;28;20200;-72
2023/12/25 10:19:11;;;;;;;1.00;0.80;;;;;;;10.61;100.00;97897.25;5094146;28;20230;-72
2023/12/25 10:21:45;;;;;;;0.40;0.40;;;;;;;10.60;100.00;97897.47;5093868;28;20203;-72
2023/12/25 10:24:17;;;;;;;0.50;0.50;;;;;;;10.57;100.00;97896.06;5093662;28;20569;-72
2023/12/25 10:26:46;;;;;;;1.57;0.50;;;;;;;10.53;100.00;97905.50;5093772;28;20211;-72
2023/12/25 10:29:13;;;;;;;0.60;0.43;;;;;;;10.54;100.00;97893.84;5093784;28;20220;-72
2023/12/25 10:31:43;;;;;;;0.60;0.60;;;;;;;10.59;100.00;97893.97;5093463;28;20220;-72
2023/12/25 10:34:10;;;;;;;0.87;0.50;;;;;;;10.68;100.00;97899.81;5093903;28;20188;-72
2023/12/25 10:36:38;;;;;;;0.60;0.60;;;;;;;10.85;100.00;97903.47;5093740;28;20208;-72
2023/12/25 10:39:04;;;;;;;0.53;0.53;;;;;;;10.99;100.00;97904.94;5093559;28;20259;-73
2023/12/25 10:41:35;;;;;;;0.80;0.50;;;;;;;11.10;100.00;97904.19;5093527;28;20220;-73
2023/12/25 10:44:03;;;;;;;0.83;0.57;;;;;;;11.27;100.00;97902.50;5093190;28;20313;-73
2023/12/25 10:46:34;;;;;;;0.50;0.50;;;;;;;11.35;100.00;97904.03;5093471;28;20299;-73
2023/12/25 10:49:01;;;;;;;0.57;0.50;;;;;;;11.47;100.00;97895.03;5093199;28;20244;-73
2023/12/25 10:51:34;;;;;;;0.60;0.60;;;;;;;11.38;100.00;97901.72;5093181;28;20228;-73
2023/12/25 10:54:02;;;;;;;2.43;0.57;;;;;;;11.38;100.00;97893.75;5093355;28;20332;-73
2023/12/25 10:56:32;;;;;;;0.93;0.60;;;;;;;11.36;100.00;97892.34;5093450;28;20215;-73
2023/12/25 10:59:24;;;;;;;0.40;0.30;;;;;;;11.52;100.00;97889.03;5093424;28;20190;-73
2023/12/25 11:01:52;;;;;;;1.07;0.50;;;;;;;11.54;100.00;97889.59;5093278;28;20185;-73
2023/12/25 11:04:19;;;;;;;0.50;0.50;;;;;;;11.56;100.00;97890.19;5092940;28;20749;-73
2023/12/25 11:06:46;;;;;;;0.40;0.40;;;;;;;11.62;100.00;97890.09;5093302;28;20209;-73
2023/12/25 11:09:17;;;;;;;0.97;0.50;;;;;;;11.70;100.00;97883.66;5093275;28;20236;-73
2023/12/25 11:11:44;;;;;;;0.60;0.50;;;;;;;11.54;100.00;97882.44;5093372;28;20215;-73
2023/12/25 11:14:11;;;;;;;0.40;0.40;;;;;;;11.55;100.00;97889.38;5093363;28;20207;-73
2023/12/25 11:16:38;;;;;;;0.50;0.50;;;;;;;11.48;100.00;97895.84;5093361;28;20611;-73
2023/12/25 11:19:06;;;;;;;0.40;0.40;;;;;;;11.44;100.00;97890.16;5093169;28;20222;-73
2023/12/25 11:21:34;;;;;;;0.40;0.40;;;;;;;11.38;100.00;97885.75;5092931;28;20203;-73
2023/12/25 11:24:02;;;;;;;0.30;0.30;;;;;;;11.44;100.00;97881.38;5093034;28;20614;-73
2023/12/25 11:26:29;;;;;;;0.40;0.40;;;;;;;11.31;100.00;97897.53;5093196;28;20228;-73